Time;durP1;ratioP1;P1;durP2;ratioP2;P2;SDS_P1;SDS_P2;PMS_P1;PMS_P2;Temp;Humidity;BMP_temperature;BMP_pressure;BME280_temperature;BME280_humidity;BME280_pressure;Samples;Min_cycle;Max_cycle;Signal;HPM_P1;HPM_P2
2022/09/13 00:00:50;;;;;;;16.13;7.53;;;21.10;99.90;;;;;;5032816;28;20530;-62
2022/09/13 00:03:16;;;;;;;18.25;7.18;;;20.30;99.90;;;;;;5019226;28;20041;-62
2022/09/13 00:05:42;;;;;;;11.02;6.45;;;21.10;99.90;;;;;;5032809;28;20557;-62
2022/09/13 00:08:08;;;;;;;16.98;7.70;;;21.20;99.90;;;;;;5015827;28;20041;-62
2022/09/13 00:10:36;;;;;;;22.92;9.43;;;20.30;99.90;;;;;;5033216;28;20403;-62
2022/09/13 00:13:02;;;;;;;14.55;8.13;;;21.30;99.90;;;;;;5033311;28;20132;-62
2022/09/13 00:15:28;;;;;;;15.98;7.43;;;20.30;99.90;;;;;;5030176;28;20403;-62
2022/09/13 00:17:54;;;;;;;11.30;6.75;;;20.50;99.90;;;;;;5033350;28;20038;-61
2022/09/13 00:20:19;;;;;;;15.75;6.22;;;20.50;99.90;;;;;;5033583;28;20410;-62
2022/09/13 00:22:45;;;;;;;8.50;5.72;;;20.70;99.90;;;;;;5033298;28;20044;-62
2022/09/13 00:25:11;;;;;;;10.90;5.60;;;21.30;99.90;;;;;;5032091;28;20042;-62
2022/09/13 00:27:36;;;;;;;10.90;5.30;;;21.30;99.90;;;;;;5024450;28;20532;-62
2022/09/13 00:30:07;;;;;;;13.25;5.90;;;20.90;99.90;;;;;;5032934;28;20037;-62
2022/09/13 00:32:34;;;;;;;9.43;6.35;;;21.10;99.90;;;;;;5031933;28;20037;-61
2022/09/13 00:35:00;;;;;;;13.27;5.60;;;20.60;99.90;;;;;;5032308;28;20406;-61
2022/09/13 00:37:26;;;;;;;12.43;5.40;;;20.60;99.90;;;;;;5032584;28;20045;-61
2022/09/13 00:39:51;;;;;;;14.00;5.03;;;21.40;99.90;;;;;;5026115;28;20527;-62
2022/09/13 00:42:17;;;;;;;11.85;5.65;;;22.00;99.90;;;;;;5032494;28;20065;-61
2022/09/13 00:44:56;;;;;;;10.77;5.15;;;20.60;99.90;;;;;;5032644;28;20041;-62
2022/09/13 00:47:51;;;;;;;15.48;5.10;;;20.70;99.90;;;;;;5033089;28;20033;-62
2022/09/13 00:50:36;;;;;;;10.23;4.82;;;21.40;99.90;;;;;;5032096;28;20503;-62
2022/09/13 00:53:08;;;;;;;9.13;4.28;;;20.70;99.90;;;;;;5032364;28;20033;-61
2022/09/13 00:55:52;;;;;;;14.20;5.15;;;20.90;99.90;;;;;;5032123;28;20064;-62
2022/09/13 00:58:40;;;;;;;10.32;4.60;;;20.80;99.90;;;;;;5032595;28;20111;-61
2022/09/13 01:01:10;;;;;;;8.50;4.55;;;20.70;99.90;;;;;;5004040;28;20068;-62
2022/09/13 01:03:36;;;;;;;16.40;4.68;;;21.20;99.90;;;;;;5032105;28;20419;-62
2022/09/13 01:06:08;;;;;;;7.53;4.30;;;21.60;99.90;;;;;;5030896;28;20049;-61
2022/09/13 01:08:36;;;;;;;10.85;4.55;;;21.60;99.90;;;;;;5031803;28;20083;-62
2022/09/13 01:11:05;;;;;;;11.25;4.55;;;21.00;99.90;;;;;;5031598;28;20419;-62
2022/09/13 01:13:32;;;;;;;10.18;4.30;;;21.40;99.90;;;;;;5031572;28;20033;-61
2022/09/13 01:15:59;;;;;;;9.50;5.35;;;21.70;99.90;;;;;;5031573;28;20037;-62
2022/09/13 01:18:25;;;;;;;7.55;3.60;;;21.30;99.90;;;;;;5032083;28;20063;-62
2022/09/13 01:21:41;;;;;;;11.82;3.80;;;21.50;99.90;;;;;;5032580;28;20050;-62
2022/09/13 01:24:09;;;;;;;7.63;4.10;;;21.70;99.90;;;;;;5028239;28;20076;-61
2022/09/13 01:27:07;;;;;;;11.68;4.45;;;20.90;99.90;;;;;;5030373;28;20095;-62
2022/09/13 01:29:57;;;;;;;10.13;4.63;;;21.50;99.90;;;;;;5025736;28;20069;-61
2022/09/13 01:32:55;;;;;;;13.95;4.38;;;21.70;99.90;;;;;;5024565;28;20035;-62
2022/09/13 01:35:48;;;;;;;8.75;3.92;;;21.80;99.90;;;;;;5027554;28;20041;-61
2022/09/13 01:38:42;;;;;;;16.13;3.95;;;21.40;99.90;;;;;;5030641;28;20052;-62
2022/09/13 01:41:47;;;;;;;14.32;4.10;;;20.90;99.90;;;;;;5032121;28;20507;-62
2022/09/13 01:44:18;;;;;;;11.95;3.80;;;20.90;99.90;;;;;;5026699;28;20045;-61
2022/09/13 01:46:59;;;;;;;12.90;3.90;;;20.90;99.90;;;;;;5030920;28;20057;-61
2022/09/13 01:49:38;;;;;;;12.52;4.10;;;21.50;99.90;;;;;;5030518;28;20044;-62
2022/09/13 01:52:16;;;;;;;17.20;4.13;;;21.00;99.90;;;;;;5021757;28;20115;-61
2022/09/13 01:54:53;;;;;;;11.20;3.55;;;21.70;99.90;;;;;;5031420;28;20037;-62
2022/09/13 01:57:36;;;;;;;5.05;1.40;;;21.30;99.90;;;;;;5031036;28;20033;-62
2022/09/13 02:00:09;;;;;;;6.63;1.25;;;20.90;99.90;;;;;;5031196;28;20038;-62
2022/09/13 02:02:55;;;;;;;3.10;0.80;;;21.40;99.90;;;;;;5029201;28;20072;-62
2022/09/13 02:05:39;;;;;;;4.82;1.10;;;21.00;99.90;;;;;;5029902;28;20041;-62
2022/09/13 02:08:20;;;;;;;7.15;1.20;;;21.10;99.90;;;;;;5031341;28;20041;-62
2022/09/13 02:10:52;;;;;;;4.88;1.20;;;20.20;99.90;;;;;;5031042;28;20409;-63
2022/09/13 02:13:23;;;;;;;4.20;1.05;;;20.50;99.90;;;;;;5031369;28;20057;-62
2022/09/13 02:15:55;;;;;;;4.85;1.02;;;20.20;99.90;;;;;;5030347;28;20033;-62
2022/09/13 02:18:42;;;;;;;8.63;1.45;;;20.30;99.90;;;;;;5031862;28;20045;-62
2022/09/13 02:21:16;;;;;;;7.10;1.60;;;20.00;99.90;;;;;;5031497;28;20037;-61
2022/09/13 02:23:50;;;;;;;7.30;1.35;;;20.80;99.90;;;;;;5028874;28;20056;-62
2022/09/13 02:26:19;;;;;;;8.02;1.65;;;20.60;99.90;;;;;;5029214;28;20099;-62
2022/09/13 02:28:50;;;;;;;5.65;1.25;;;20.00;99.90;;;;;;5028160;28;20042;-61
2022/09/13 02:31:20;;;;;;;6.10;1.30;;;21.00;99.90;;;;;;5030821;28;20132;-63
2022/09/13 02:33:52;;;;;;;9.60;1.40;;;20.80;99.90;;;;;;5030475;28;20136;-61
2022/09/13 02:36:25;;;;;;;15.68;1.98;;;20.10;99.90;;;;;;5029107;28;20041;-63
2022/09/13 02:39:02;;;;;;;7.88;1.30;;;20.60;99.90;;;;;;5031309;28;20050;-62
2022/09/13 02:41:45;;;;;;;4.53;1.00;;;20.60;99.90;;;;;;5030838;28;20091;-63
2022/09/13 02:44:21;;;;;;;9.18;1.02;;;20.80;99.90;;;;;;5031137;28;20033;-61
2022/09/13 02:47:20;;;;;;;6.95;1.33;;;20.80;99.90;;;;;;5029161;28;20348;-62
2022/09/13 02:50:20;;;;;;;4.60;1.10;;;20.90;99.90;;;;;;5030033;28;20073;-62
2022/09/13 02:53:17;;;;;;;6.28;1.10;;;20.30;99.90;;;;;;5015759;28;20044;-62
2022/09/13 02:56:11;;;;;;;5.10;1.60;;;20.60;99.90;;;;;;5030382;28;20032;-62
2022/09/13 02:58:55;;;;;;;9.93;1.45;;;20.50;99.90;;;;;;4998495;28;20095;-63
2022/09/13 03:01:21;;;;;;;9.20;1.42;;;20.70;99.90;;;;;;5013762;28;20049;-62
2022/09/13 03:03:47;;;;;;;4.80;1.17;;;20.20;99.90;;;;;;5029729;28;20037;-62
2022/09/13 03:06:20;;;;;;;4.72;1.40;;;20.60;99.90;;;;;;5026832;28;20049;-62
2022/09/13 03:08:46;;;;;;;4.10;1.00;;;20.50;99.90;;;;;;5011766;28;20086;-61
2022/09/13 03:11:30;;;;;;;8.07;1.00;;;20.60;99.90;;;;;;5027743;28;20414;-62
2022/09/13 03:14:09;;;;;;;5.10;1.00;;;20.30;99.90;;;;;;5029508;28;20466;-62
2022/09/13 03:16:54;;;;;;;4.60;1.50;;;20.20;99.90;;;;;;5033813;28;20487;-62
2022/09/13 03:19:47;;;;;;;5.15;1.60;;;20.60;99.90;;;;;;5016620;28;20049;-63
2022/09/13 03:22:42;;;;;;;6.28;1.15;;;21.00;99.90;;;;;;5024719;28;20091;-62
2022/09/13 03:25:26;;;;;;;3.28;1.40;;;20.10;99.90;;;;;;5033931;28;20041;-62
2022/09/13 03:28:23;;;;;;;4.28;1.20;;;20.10;99.90;;;;;;5032308;28;20052;-62
2022/09/13 03:30:55;;;;;;;3.65;1.20;;;20.70;99.90;;;;;;5033272;28;20092;-61
2022/09/13 03:33:34;;;;;;;4.63;1.00;;;20.10;99.90;;;;;;5033975;28;20494;-61
2022/09/13 03:36:11;;;;;;;6.07;1.05;;;20.10;99.90;;;;;;5033947;28;20138;-62
2022/09/13 03:38:41;;;;;;;8.82;1.85;;;20.70;99.90;;;;;;5016599;28;20163;-61
2022/09/13 03:41:09;;;;;;;4.75;1.50;;;20.20;99.90;;;;;;5031104;28;20112;-63
2022/09/13 03:43:42;;;;;;;5.43;1.17;;;20.20;99.90;;;;;;5008699;28;20376;-62
2022/09/13 03:46:29;;;;;;;11.95;1.50;;;20.70;99.90;;;;;;5033864;28;20079;-62
2022/09/13 03:48:56;;;;;;;11.10;1.40;;;20.70;99.90;;;;;;5034456;28;20396;-61
2022/09/13 03:51:24;;;;;;;7.63;1.60;;;20.70;99.90;;;;;;5014663;28;20049;-62
2022/09/13 03:53:57;;;;;;;9.35;1.33;;;20.60;99.90;;;;;;5032604;28;20029;-62
2022/09/13 03:56:23;;;;;;;5.50;1.42;;;20.50;99.90;;;;;;5033388;28;20421;-61
2022/09/13 03:58:49;;;;;;;7.95;1.40;;;20.70;99.90;;;;;;5034143;28;20037;-61
2022/09/13 04:01:22;;;;;;;8.02;1.30;;;20.20;99.90;;;;;;5032134;28;20407;-62
2022/09/13 04:03:48;;;;;;;8.35;2.05;;;20.40;99.90;;;;;;5015843;28;20399;-62
2022/09/13 04:06:13;;;;;;;8.25;1.80;;;20.20;99.90;;;;;;5033582;28;20042;-62
2022/09/13 04:08:39;;;;;;;14.93;2.13;;;20.80;99.90;;;;;;5032832;28;20038;-61
2022/09/13 04:11:05;;;;;;;8.15;2.28;;;20.80;99.90;;;;;;5025944;28;20519;-62
2022/09/13 04:13:30;;;;;;;10.70;2.22;;;19.90;99.90;;;;;;5033627;28;20120;-62
2022/09/13 04:16:03;;;;;;;9.13;2.33;;;20.10;99.90;;;;;;5033286;28;20037;-62
2022/09/13 04:18:29;;;;;;;9.45;1.67;;;20.00;99.90;;;;;;5033555;28;20052;-62
2022/09/13 04:20:57;;;;;;;11.30;1.85;;;20.30;99.90;;;;;;5032466;28;20034;-63
2022/09/13 04:23:23;;;;;;;11.77;1.60;;;20.20;99.90;;;;;;5033484;28;20411;-63
2022/09/13 04:25:52;;;;;;;7.43;1.80;;;20.80;99.90;;;;;;5014788;28;20037;-62
2022/09/13 04:28:19;;;;;;;14.23;1.67;;;20.70;99.90;;;;;;5030118;28;20129;-62
2022/09/13 04:30:46;;;;;;;7.95;1.63;;;20.50;99.90;;;;;;5009203;28;20054;-62
2022/09/13 04:33:12;;;;;;;5.40;1.45;;;20.20;99.90;;;;;;5030212;28;20445;-62
2022/09/13 04:35:39;;;;;;;12.35;2.33;;;20.90;99.90;;;;;;5029518;28;20044;-62
2022/09/13 04:38:05;;;;;;;12.13;2.00;;;20.80;99.90;;;;;;5031806;28;20048;-62
2022/09/13 04:40:31;;;;;;;9.50;1.58;;;20.50;99.90;;;;;;5030747;28;20049;-62
2022/09/13 04:42:57;;;;;;;6.70;1.95;;;20.70;99.90;;;;;;5032380;28;20407;-62
2022/09/13 04:45:23;;;;;;;4.60;1.38;;;21.00;99.90;;;;;;5029986;28;20059;-62
2022/09/13 04:47:52;;;;;;;11.88;1.70;;;20.70;99.90;;;;;;5027674;28;20580;-62
2022/09/13 04:50:19;;;;;;;13.10;1.80;;;20.50;99.90;;;;;;5012323;28;20501;-62
2022/09/13 04:52:45;;;;;;;15.80;2.08;;;20.90;99.90;;;;;;5030636;28;20121;-62
2022/09/13 04:55:11;;;;;;;11.18;1.80;;;20.60;99.90;;;;;;5029169;28;20042;-62
2022/09/13 04:57:37;;;;;;;11.23;1.80;;;21.40;99.90;;;;;;5010990;28;20494;-62
2022/09/13 05:00:04;;;;;;;10.77;1.80;;;21.10;99.90;;;;;;5028774;28;20136;-61
2022/09/13 05:02:29;;;;;;;11.10;2.17;;;20.90;99.90;;;;;;5026875;28;20038;-62
2022/09/13 05:04:55;;;;;;;13.60;1.90;;;20.80;99.90;;;;;;5028399;28;20170;-63
2022/09/13 05:07:21;;;;;;;7.75;1.42;;;20.80;99.90;;;;;;5007432;28;20049;-61
2022/09/13 05:09:46;;;;;;;14.23;1.88;;;20.70;99.90;;;;;;4996363;28;20521;-62
2022/09/13 05:12:12;;;;;;;11.38;2.10;;;20.70;99.90;;;;;;5028145;28;20112;-63
2022/09/13 05:14:37;;;;;;;10.98;2.13;;;20.90;99.90;;;;;;5030230;28;20144;-62
2022/09/13 05:17:03;;;;;;;11.63;1.70;;;20.50;99.90;;;;;;5030184;28;20079;-63
2022/09/13 05:19:28;;;;;;;17.27;1.70;;;20.70;99.90;;;;;;5030148;28;20102;-67
2022/09/13 05:21:54;;;;;;;10.80;2.05;;;20.90;99.90;;;;;;5026363;28;20399;-62
2022/09/13 05:24:20;;;;;;;13.82;1.80;;;20.90;99.90;;;;;;5026625;28;20037;-62
2022/09/13 05:26:45;;;;;;;7.47;1.55;;;20.70;99.90;;;;;;5026587;28;20508;-62
2022/09/13 05:29:11;;;;;;;12.70;1.80;;;20.70;99.90;;;;;;5029826;28;20037;-62
2022/09/13 05:31:39;;;;;;;10.07;1.80;;;20.60;99.90;;;;;;5027743;28;20077;-62
2022/09/13 05:34:10;;;;;;;9.93;2.08;;;20.80;99.90;;;;;;5023222;28;20048;-62
2022/09/13 05:36:37;;;;;;;15.00;2.20;;;20.80;99.90;;;;;;5029044;28;20034;-62
2022/09/13 05:39:03;;;;;;;8.02;1.60;;;20.60;99.90;;;;;;5027721;28;20038;-62
2022/09/13 05:41:29;;;;;;;10.50;1.65;;;20.80;99.90;;;;;;5022451;28;20033;-63
2022/09/13 05:43:54;;;;;;;10.88;1.63;;;20.40;99.90;;;;;;5025700;28;20029;-61
2022/09/13 05:46:21;;;;;;;11.50;1.60;;;20.50;99.90;;;;;;5030031;28;20430;-61
2022/09/13 05:48:47;;;;;;;17.75;1.88;;;20.50;99.90;;;;;;5031226;28;20044;-61
2022/09/13 05:51:15;;;;;;;10.88;1.85;;;20.50;99.90;;;;;;5030039;28;20111;-61
2022/09/13 05:53:43;;;;;;;7.28;1.35;;;20.30;99.90;;;;;;5031233;28;20025;-61
2022/09/13 05:56:11;;;;;;;15.55;2.65;;;20.50;99.90;;;;;;5030822;28;20044;-61
2022/09/13 05:58:41;;;;;;;7.85;1.60;;;20.40;99.90;;;;;;5016026;28;20041;-62
2022/09/13 06:01:08;;;;;;;7.00;1.52;;;20.40;99.90;;;;;;5030781;28;20033;-62
2022/09/13 06:03:35;;;;;;;9.68;1.20;;;20.50;99.90;;;;;;5030520;28;20077;-61
2022/09/13 06:06:01;;;;;;;6.90;1.80;;;20.40;99.90;;;;;;5031392;28;20065;-61
2022/09/13 06:08:28;;;;;;;6.60;1.60;;;20.30;99.90;;;;;;5014060;28;20068;-61
2022/09/13 06:10:58;;;;;;;7.07;1.65;;;20.30;99.90;;;;;;5030060;28;20507;-61
2022/09/13 06:13:25;;;;;;;5.63;1.42;;;20.30;99.90;;;;;;5030962;28;20068;-62
2022/09/13 06:15:51;;;;;;;8.07;1.38;;;20.50;99.90;;;;;;5029746;28;20072;-61
2022/09/13 06:18:18;;;;;;;8.27;1.30;;;20.50;99.90;;;;;;5031093;28;20037;-62
2022/09/13 06:20:44;;;;;;;7.10;1.45;;;20.40;99.90;;;;;;5031522;28;20049;-61
2022/09/13 06:23:09;;;;;;;4.88;1.40;;;20.50;99.90;;;;;;5030749;28;20588;-61
2022/09/13 06:25:35;;;;;;;8.48;1.40;;;20.60;99.90;;;;;;5031281;28;20073;-61
2022/09/13 06:28:00;;;;;;;8.18;1.85;;;20.60;99.90;;;;;;5031456;28;20208;-61
2022/09/13 06:30:26;;;;;;;9.40;1.45;;;20.60;99.90;;;;;;5030714;28;20045;-61
2022/09/13 06:32:54;;;;;;;10.23;1.63;;;20.70;99.90;;;;;;5030824;28;20029;-60
2022/09/13 06:35:20;;;;;;;5.93;1.40;;;20.60;99.90;;;;;;5016756;28;20070;-60
2022/09/13 06:37:45;;;;;;;7.43;1.30;;;20.60;99.90;;;;;;5029791;28;20402;-61
2022/09/13 06:40:12;;;;;;;22.70;2.25;;;20.60;99.90;;;;;;5030256;28;20056;-61
2022/09/13 06:42:38;;;;;;;7.25;1.13;;;20.60;99.90;;;;;;5031055;28;20555;-60
2022/09/13 06:45:04;;;;;;;6.07;1.13;;;20.50;99.90;;;;;;5030140;28;20145;-62
2022/09/13 06:47:30;;;;;;;7.40;1.20;;;20.70;99.90;;;;;;5031041;28;20045;-62
2022/09/13 06:49:56;;;;;;;8.18;1.30;;;20.60;99.90;;;;;;5033244;28;20399;-62
2022/09/13 06:52:22;;;;;;;9.25;1.50;;;20.70;99.90;;;;;;5033995;28;20124;-61
2022/09/13 06:54:48;;;;;;;11.07;1.42;;;20.80;99.90;;;;;;5035064;28;20517;-61
2022/09/13 06:57:13;;;;;;;10.20;1.92;;;20.80;99.90;;;;;;5034250;28;20150;-61
2022/09/13 06:59:39;;;;;;;4.03;1.20;;;20.90;99.90;;;;;;5016101;28;20399;-61
2022/09/13 07:02:04;;;;;;;6.40;1.17;;;20.80;99.90;;;;;;5013306;28;20052;-61
2022/09/13 07:04:30;;;;;;;6.45;1.20;;;20.90;99.90;;;;;;5033976;28;20037;-62
2022/09/13 07:06:57;;;;;;;6.28;1.33;;;21.10;99.90;;;;;;5033963;28;20415;-62
2022/09/13 07:09:23;;;;;;;11.57;1.73;;;21.10;99.90;;;;;;5034411;28;20044;-62
2022/09/13 07:11:52;;;;;;;10.57;1.50;;;21.00;99.90;;;;;;5034320;28;20407;-62
2022/09/13 07:14:21;;;;;;;14.15;1.60;;;20.90;99.90;;;;;;5015917;28;20041;-61
2022/09/13 07:16:47;;;;;;;8.48;1.60;;;21.00;99.90;;;;;;5034075;28;20044;-62
2022/09/13 07:19:18;;;;;;;12.60;1.92;;;20.90;99.90;;;;;;5016588;28;20483;-61
2022/09/13 07:21:44;;;;;;;7.93;1.17;;;21.00;99.90;;;;;;5033413;28;20037;-61
2022/09/13 07:24:10;;;;;;;5.00;1.20;;;21.10;99.90;;;;;;5009456;28;20506;-61
2022/09/13 07:26:36;;;;;;;6.75;1.23;;;21.10;99.90;;;;;;5026317;28;20029;-62
2022/09/13 07:29:05;;;;;;;3.33;1.08;;;21.10;99.90;;;;;;5034454;28;20122;-63
2022/09/13 07:31:33;;;;;;;3.55;0.93;;;21.10;99.90;;;;;;5027594;28;20033;-62
2022/09/13 07:34:02;;;;;;;8.07;1.70;;;20.90;99.90;;;;;;5031872;28;20081;-63
2022/09/13 07:36:29;;;;;;;10.98;1.63;;;20.80;99.90;;;;;;5034089;28;20068;-62
2022/09/13 07:38:56;;;;;;;7.80;1.60;;;20.80;99.90;;;;;;5034319;28;20109;-62
2022/09/13 07:41:23;;;;;;;9.38;1.63;;;20.90;99.90;;;;;;5033738;28;20483;-62
2022/09/13 07:43:50;;;;;;;10.20;1.70;;;20.90;99.90;;;;;;5033940;28;20042;-62
2022/09/13 07:46:18;;;;;;;11.77;2.00;;;21.00;99.90;;;;;;5033783;28;20088;-62
2022/09/13 07:48:45;;;;;;;8.80;1.63;;;20.90;99.90;;;;;;5033795;28;20483;-62
2022/09/13 07:51:13;;;;;;;9.73;1.52;;;21.00;99.90;;;;;;5034041;28;20040;-63
2022/09/13 07:53:41;;;;;;;6.90;1.63;;;21.10;99.90;;;;;;5033558;28;20048;-63
2022/09/13 07:56:10;;;;;;;5.97;1.30;;;21.10;99.90;;;;;;5033449;28;20040;-63
2022/09/13 07:58:37;;;;;;;6.78;1.08;;;21.40;99.90;;;;;;5016557;28;20565;-62
2022/09/13 08:01:04;;;;;;;3.25;1.00;;;21.50;99.90;;;;;;5014547;28;20045;-62
2022/09/13 08:03:31;;;;;;;8.10;1.50;;;21.70;99.90;;;;;;5033796;28;20132;-63
2022/09/13 08:05:56;;;;;;;10.07;1.48;;;21.90;99.90;;;;;;5016511;28;20041;-62
2022/09/13 08:08:22;;;;;;;7.50;1.30;;;22.10;99.90;;;;;;5016050;28;20473;-62
2022/09/13 08:10:47;;;;;;;8.18;1.50;;;22.20;99.90;;;;;;5033154;28;20045;-63
2022/09/13 08:13:15;;;;;;;7.38;1.30;;;22.30;99.90;;;;;;5023391;28;20046;-62
2022/09/13 08:15:41;;;;;;;9.13;1.55;;;22.20;99.90;;;;;;5033484;28;20120;-62
2022/09/13 08:18:07;;;;;;;8.82;1.50;;;21.90;99.90;;;;;;5033342;28;20442;-63
2022/09/13 08:20:39;;;;;;;9.05;1.77;;;22.10;99.90;;;;;;5032835;28;20040;-62
2022/09/13 08:23:05;;;;;;;10.38;1.60;;;22.40;99.90;;;;;;5033354;28;20064;-63
2022/09/13 08:25:33;;;;;;;6.65;1.38;;;22.40;99.90;;;;;;5016888;28;20459;-63
2022/09/13 08:28:06;;;;;;;4.97;1.30;;;22.40;99.90;;;;;;5032933;28;20046;-63
2022/09/13 08:30:35;;;;;;;5.53;1.75;;;22.60;99.90;;;;;;5033485;28;20037;-62
2022/09/13 08:33:04;;;;;;;6.63;1.40;;;22.40;99.90;;;;;;5029491;28;20043;-63
2022/09/13 08:35:31;;;;;;;8.23;1.52;;;22.50;99.90;;;;;;5032526;28;20034;-63
2022/09/13 08:37:57;;;;;;;9.55;1.50;;;22.50;99.90;;;;;;5016177;28;20419;-62
2022/09/13 08:40:27;;;;;;;7.25;1.58;;;22.30;99.90;;;;;;5032888;28;20163;-62
2022/09/13 08:43:04;;;;;;;5.63;1.38;;;22.00;99.90;;;;;;5032578;28;20108;-62
2022/09/13 08:45:30;;;;;;;6.35;1.30;;;21.90;99.90;;;;;;5026981;28;20044;-62
2022/09/13 08:48:03;;;;;;;10.02;1.50;;;22.00;99.90;;;;;;5029292;28;20128;-63
2022/09/13 08:50:37;;;;;;;5.95;1.23;;;22.00;1.00;;;;;;5013779;28;20045;-62
2022/09/13 08:53:17;;;;;;;9.27;1.40;;;22.20;98.60;;;;;;5032710;28;20033;-62
2022/09/13 08:55:48;;;;;;;7.63;1.30;;;22.50;1.00;;;;;;5032805;28;20037;-62
2022/09/13 08:58:48;;;;;;;5.60;1.10;;;22.40;59.00;;;;;;5033045;28;20072;-63
2022/09/13 09:01:38;;;;;;;10.25;1.63;;;22.50;99.90;;;;;;5000647;28;20128;-62
2022/09/13 09:04:25;;;;;;;6.20;1.38;;;22.50;1.00;;;;;;5025643;28;20487;-62
2022/09/13 09:07:04;;;;;;;5.55;1.38;;;22.60;99.90;;;;;;5012196;28;20069;-63
2022/09/13 09:09:34;;;;;;;10.63;1.30;;;22.70;99.90;;;;;;5032637;28;20403;-62
2022/09/13 09:12:25;;;;;;;4.00;1.10;;;23.00;12.10;;;;;;5031840;28;20128;-63
2022/09/13 09:15:14;;;;;;;9.73;1.38;;;22.90;99.90;;;;;;5031966;28;20061;-64
2022/09/13 09:18:08;;;;;;;5.85;1.00;;;23.00;99.90;;;;;;5032132;28;20045;-64
2022/09/13 09:20:44;;;;;;;5.30;1.52;;;22.80;1.00;;;;;;5032360;28;20045;-64
2022/09/13 09:23:34;;;;;;;6.75;1.40;;;22.90;1.00;;;;;;5031732;28;20033;-64
2022/09/13 09:26:30;;;;;;;7.07;1.60;;;22.90;1.00;;;;;;5032105;28;20044;-64
2022/09/13 09:29:16;;;;;;;3.90;1.20;;;22.80;1.00;;;;;;5018005;28;20533;-64
2022/09/13 09:31:47;;;;;;;6.45;1.40;;;22.70;99.90;;;;;;5031823;28;20041;-64
2022/09/13 09:34:42;;;;;;;6.05;1.20;;;22.60;99.90;;;;;;5031735;28;20045;-64
2022/09/13 09:37:23;;;;;;;5.68;1.20;;;22.40;99.00;;;;;;5031431;28;20698;-64
2022/09/13 09:39:50;;;;;;;5.90;1.40;;;22.50;30.70;;;;;;5030782;28;20041;-64
2022/09/13 09:42:20;;;;;;;12.35;1.60;;;22.50;99.90;;;;;;5014400;28;20487;-65
2022/09/13 09:44:50;;;;;;;7.85;2.00;;;22.60;99.90;;;;;;5031043;28;20037;-64
2022/09/13 09:47:35;;;;;;;11.07;1.50;;;22.60;12.70;;;;;;5031422;28;20033;-65
2022/09/13 09:50:09;;;;;;;7.25;1.40;;;22.60;1.00;;;;;;5031398;28;20049;-65
2022/09/13 09:53:14;;;;;;;8.20;1.30;;;22.70;1.00;;;;;;5030333;28;20033;-64
2022/09/13 09:56:19;;;;;;;7.85;1.40;;;22.80;1.00;;;;;;5025177;28;20152;-65
2022/09/13 09:58:45;;;;;;;5.82;1.30;;;22.90;99.90;;;;;;5022547;28;20050;-64
2022/09/13 10:01:26;;;;;;;5.97;1.40;;;22.80;99.90;;;;;;5030150;28;20128;-65
2022/09/13 10:04:09;;;;;;;7.70;1.67;;;22.70;99.90;;;;;;5030327;28;20048;-64
2022/09/13 10:06:40;;;;;;;7.70;1.10;;;22.70;99.90;;;;;;5029208;28;20045;-65
2022/09/13 10:09:18;;;;;;;5.57;1.40;;;22.70;99.90;;;;;;5028708;28;20050;-65
2022/09/13 10:11:55;;;;;;;5.40;1.30;;;22.90;99.90;;;;;;5030321;28;20085;-64
2022/09/13 10:14:30;;;;;;;9.15;1.35;;;23.00;99.90;;;;;;5030686;28;20447;-64
2022/09/13 10:17:27;;;;;;;3.83;1.48;;;23.20;99.90;;;;;;5012398;28;20049;-64
2022/09/13 10:20:03;;;;;;;5.13;1.40;;;23.40;99.90;;;;;;5009046;28;20073;-64
2022/09/13 10:22:30;;;;;;;6.07;1.23;;;23.50;99.90;;;;;;5030567;28;20125;-65
2022/09/13 10:25:22;;;;;;;7.43;1.40;;;23.50;92.50;;;;;;5011529;28;21833;-64
2022/09/13 10:27:50;;;;;;;6.70;1.10;;;23.30;50.50;;;;;;5029375;28;20045;-64
2022/09/13 10:30:34;;;;;;;4.50;1.00;;;23.20;92.40;;;;;;5031307;28;20056;-65
2022/09/13 10:33:00;;;;;;;5.30;1.10;;;22.90;99.90;;;;;;5027161;28;20048;-64
2022/09/13 10:35:27;;;;;;;8.27;1.20;;;22.30;92.10;;;;;;5012307;28;20080;-64
2022/09/13 10:37:52;;;;;;;16.52;1.77;;;22.10;99.90;;;;;;5030686;28;20057;-64
2022/09/13 10:40:29;;;;;;;7.43;1.27;;;22.10;99.90;;;;;;5031259;28;20415;-64
2022/09/13 10:43:01;;;;;;;7.03;1.35;;;22.50;99.90;;;;;;5027890;28;20084;-64
2022/09/13 10:45:29;;;;;;;7.55;1.58;;;22.90;48.90;;;;;;5025259;28;20336;-64
2022/09/13 10:48:09;;;;;;;6.45;1.20;;;23.00;1.00;;;;;;5029493;28;20080;-64
2022/09/13 10:50:35;;;;;;;12.27;1.70;;;23.20;1.00;;;;;;5015786;28;20040;-65
2022/09/13 10:53:04;;;;;;;9.85;1.30;;;23.50;1.00;;;;;;5030462;28;20109;-64
2022/09/13 10:55:35;;;;;;;9.57;1.83;;;23.70;1.00;;;;;;5030147;28;20069;-64
2022/09/13 10:58:01;;;;;;;8.27;1.73;;;23.60;54.70;;;;;;5030112;28;20041;-64
2022/09/13 11:01:05;;;;;;;10.38;2.03;;;23.20;5.10;;;;;;5029584;28;20169;-64
2022/09/13 11:03:58;;;;;;;10.38;1.92;;;22.60;99.90;;;;;;5027512;28;20061;-64
2022/09/13 11:06:38;;;;;;;14.07;1.85;;;22.60;99.90;;;;;;5029410;28;20041;-64
2022/09/13 11:09:26;;;;;;;16.77;2.00;;;22.60;99.90;;;;;;5030730;28;20042;-64
2022/09/13 11:11:59;;;;;;;10.60;1.75;;;22.70;1.00;;;;;;5030062;28;20515;-64
2022/09/13 11:15:06;;;;;;;11.40;2.20;;;22.70;65.30;;;;;;5030269;28;20624;-64
2022/09/13 11:18:10;;;;;;;10.18;1.85;;;22.60;1.00;;;;;;5012529;28;20049;-64
2022/09/13 11:21:02;;;;;;;10.07;1.60;;;22.30;1.00;;;;;;5028346;28;20049;-64
2022/09/13 11:23:55;;;;;;;8.73;1.98;;;22.20;99.90;;;;;;5026189;28;20502;-64
2022/09/13 11:26:21;;;;;;;11.65;2.05;;;22.10;32.20;;;;;;5026951;28;20182;-64
2022/09/13 11:29:04;;;;;;;5.72;1.38;;;22.00;30.70;;;;;;5029311;28;20121;-63
2022/09/13 11:31:42;;;;;;;10.32;2.25;;;21.90;54.70;;;;;;5029794;28;20029;-64
2022/09/13 11:34:13;;;;;;;10.02;2.00;;;21.90;61.00;;;;;;5030347;28;20652;-64
2022/09/13 11:36:48;;;;;;;8.43;1.42;;;21.90;99.70;;;;;;5033884;28;20094;-64
2022/09/13 11:39:40;;;;;;;11.90;2.38;;;21.90;1.00;;;;;;5033572;28;20037;-64
2022/09/13 11:42:18;;;;;;;7.30;1.63;;;21.80;1.00;;;;;;5032756;28;20033;-63
2022/09/13 11:45:19;;;;;;;9.98;1.83;;;21.90;1.00;;;;;;5017264;28;20061;-64
2022/09/13 11:48:03;;;;;;;6.47;1.85;;;21.90;1.00;;;;;;5028249;28;20057;-63
2022/09/13 11:50:44;;;;;;;9.70;1.70;;;22.10;99.90;;;;;;5034140;28;20048;-64
2022/09/13 11:53:49;;;;;;;8.35;1.73;;;21.80;1.00;;;;;;5033572;28;20076;-64
2022/09/13 11:56:31;;;;;;;9.77;1.58;;;21.70;99.90;;;;;;5029805;28;20511;-64
2022/09/13 11:59:28;;;;;;;11.93;2.17;;;21.70;99.90;;;;;;5033432;28;20049;-64
2022/09/13 12:02:01;;;;;;;6.97;1.50;;;21.70;99.90;;;;;;4990770;28;20053;-64
2022/09/13 12:04:36;;;;;;;12.27;1.90;;;21.70;99.90;;;;;;5031975;28;20064;-64
2022/09/13 12:07:09;;;;;;;9.37;2.10;;;21.60;99.90;;;;;;5033564;28;20042;-64
2022/09/13 12:09:40;;;;;;;9.23;1.70;;;21.60;99.90;;;;;;5033338;28;20053;-64
2022/09/13 12:12:10;;;;;;;6.80;1.70;;;21.50;1.00;;;;;;5032948;28;20124;-64
2022/09/13 12:14:51;;;;;;;11.57;1.92;;;21.50;99.90;;;;;;5033835;28;20109;-64
2022/09/13 12:17:48;;;;;;;13.40;2.00;;;21.50;99.90;;;;;;5026557;28;20045;-64
2022/09/13 12:20:34;;;;;;;8.88;1.80;;;21.40;1.00;;;;;;5033084;28;20037;-64
2022/09/13 12:23:03;;;;;;;7.20;1.73;;;21.50;1.00;;;;;;5033260;28;20041;-64
2022/09/13 12:26:05;;;;;;;8.82;1.70;;;21.50;99.90;;;;;;5032817;28;20495;-64
2022/09/13 12:28:45;;;;;;;6.55;1.63;;;21.50;99.90;;;;;;5003991;28;20180;-64
2022/09/13 12:31:18;;;;;;;12.32;1.85;;;21.50;1.00;;;;;;5032853;28;20038;-64
2022/09/13 12:33:45;;;;;;;5.22;1.50;;;21.50;1.00;;;;;;5033575;28;20082;-64
2022/09/13 12:36:28;;;;;;;12.18;1.50;;;21.50;1.00;;;;;;5014487;28;20037;-64
2022/09/13 12:39:27;;;;;;;9.35;1.60;;;21.40;99.90;;;;;;5032912;28;20037;-64
2022/09/13 12:42:20;;;;;;;7.28;2.00;;;21.40;99.90;;;;;;5012077;28;20445;-64
2022/09/13 12:45:24;;;;;;;12.95;2.55;;;21.50;99.90;;;;;;5033282;28;20044;-64
2022/09/13 12:47:55;;;;;;;9.27;1.70;;;21.60;99.90;;;;;;5027795;28;20077;-64
2022/09/13 12:50:38;;;;;;;10.48;1.85;;;21.60;99.90;;;;;;5032828;28;20021;-65
2022/09/13 12:53:42;;;;;;;8.65;1.73;;;21.50;99.90;;;;;;5031565;28;20072;-64
2022/09/13 12:56:41;;;;;;;6.57;1.60;;;21.60;99.90;;;;;;5032331;28;20038;-64
2022/09/13 12:59:46;;;;;;;9.52;2.10;;;21.60;99.90;;;;;;5011863;28;20049;-64
2022/09/13 13:02:43;;;;;;;6.70;1.73;;;21.50;99.90;;;;;;4997719;28;20046;-64
2022/09/13 13:05:31;;;;;;;13.38;2.10;;;21.30;99.90;;;;;;5029038;28;20052;-64
2022/09/13 13:08:18;;;;;;;10.05;1.65;;;21.40;99.90;;;;;;5032111;28;20081;-64
2022/09/13 13:10:59;;;;;;;7.20;2.53;;;21.40;99.90;;;;;;5032091;28;20076;-64
2022/09/13 13:13:34;;;;;;;5.95;1.80;;;21.20;99.90;;;;;;5014125;28;20052;-64
2022/09/13 13:16:19;;;;;;;8.90;1.77;;;21.30;1.00;;;;;;5031659;28;20454;-64
2022/09/13 13:18:47;;;;;;;11.02;1.80;;;21.50;1.00;;;;;;5032020;28;20076;-64
2022/09/13 13:21:39;;;;;;;13.27;2.17;;;21.60;1.00;;;;;;5032279;28;20038;-64